sensor_id;sensor_type;location;lat;lon;timestamp;temperature;humidity
27384;DHT22;14851;51.166;4.760;2023-06-10T00:01:53;21.80;99.90
27384;DHT22;14851;51.166;4.760;2023-06-10T00:04:26;21.70;99.90
27384;DHT22;14851;51.166;4.760;2023-06-10T00:06:55;21.70;99.90
27384;DHT22;14851;51.166;4.760;2023-06-10T00:09:21;21.70;99.90
27384;DHT22;14851;51.166;4.760;2023-06-10T00:11:47;21.60;99.90
27384;DHT22;14851;51.166;4.760;2023-06-10T00:14:16;21.60;99.90
27384;DHT22;14851;51.166;4.760;2023-06-10T00:16:41;21.60;99.90
27384;DHT22;14851;51.166;4.760;2023-06-10T00:19:11;21.60;99.90
27384;DHT22;14851;51.166;4.760;2023-06-10T00:21:39;21.60;99.90
27384;DHT22;14851;51.166;4.760;2023-06-10T00:24:07;21.50;99.90
27384;DHT22;14851;51.166;4.760;2023-06-10T00:26:35;21.50;99.90
27384;DHT22;14851;51.166;4.760;2023-06-10T00:29:01;21.50;99.90
27384;DHT22;14851;51.166;4.760;2023-06-10T00:31:30;21.50;99.90
27384;DHT22;14851;51.166;4.760;2023-06-10T00:33:56;21.50;99.90
27384;DHT22;14851;51.166;4.760;2023-06-10T00:36:24;21.40;99.90
27384;DHT22;14851;51.166;4.760;2023-06-10T00:38:50;21.40;99.90
27384;DHT22;14851;51.166;4.760;2023-06-10T00:41:16;21.40;99.90
27384;DHT22;14851;51.166;4.760;2023-06-10T00:43:41;21.30;99.90
27384;DHT22;14851;51.166;4.760;2023-06-10T00:46:07;21.30;99.90
27384;DHT22;14851;51.166;4.760;2023-06-10T00:48:40;21.20;99.90
27384;DHT22;14851;51.166;4.760;2023-06-10T00:51:06;21.20;99.90
27384;DHT22;14851;51.166;4.760;2023-06-10T00:53:36;21.10;99.90
27384;DHT22;14851;51.166;4.760;2023-06-10T00:56:03;21.10;99.90
27384;DHT22;14851;51.166;4.760;2023-06-10T00:58:29;21.00;99.90
27384;DHT22;14851;51.166;4.760;2023-06-10T01:00:55;21.00;99.90
27384;DHT22;14851;51.166;4.760;2023-06-10T01:03:21;20.90;99.90
27384;DHT22;14851;51.166;4.760;2023-06-10T01:05:53;20.90;99.90
27384;DHT22;14851;51.166;4.760;2023-06-10T01:08:37;20.90;99.90
27384;DHT22;14851;51.166;4.760;2023-06-10T01:11:11;20.80;99.90
27384;DHT22;14851;51.166;4.760;2023-06-10T01:13:42;20.90;99.90
27384;DHT22;14851;51.166;4.760;2023-06-10T01:16:11;20.80;99.90
27384;DHT22;14851;51.166;4.760;2023-06-10T01:18:40;20.70;99.90
27384;DHT22;14851;51.166;4.760;2023-06-10T01:21:22;20.70;99.90
27384;DHT22;14851;51.166;4.760;2023-06-10T01:23:53;20.70;99.90
27384;DHT22;14851;51.166;4.760;2023-06-10T01:26:26;20.60;99.90
27384;DHT22;14851;51.166;4.760;2023-06-10T01:30:08;20.60;99.90
27384;DHT22;14851;51.166;4.760;2023-06-10T01:32:15;20.50;99.90
27384;DHT22;14851;51.166;4.760;2023-06-10T01:34:45;20.50;99.90
27384;DHT22;14851;51.166;4.760;2023-06-10T01:37:17;20.50;99.90
27384;DHT22;14851;51.166;4.760;2023-06-10T01:39:46;20.40;99.90
27384;DHT22;14851;51.166;4.760;2023-06-10T01:42:13;20.40;99.90
27384;DHT22;14851;51.166;4.760;2023-06-10T01:44:40;20.40;99.90
27384;DHT22;14851;51.166;4.760;2023-06-10T01:47:08;20.30;99.90
27384;DHT22;14851;51.166;4.760;2023-06-10T01:49:34;20.30;99.90
27384;DHT22;14851;51.166;4.760;2023-06-10T01:52:03;20.30;99.90
27384;DHT22;14851;51.166;4.760;2023-06-10T01:54:32;20.30;99.90
27384;DHT22;14851;51.166;4.760;2023-06-10T01:57:01;20.30;99.90
27384;DHT22;14851;51.166;4.760;2023-06-10T01:59:29;20.30;99.90
27384;DHT22;14851;51.166;4.760;2023-06-10T02:02:00;20.20;99.90
27384;DHT22;14851;51.166;4.760;2023-06-10T02:04:26;20.10;99.90
27384;DHT22;14851;51.166;4.760;2023-06-10T02:06:52;20.10;99.90
27384;DHT22;14851;51.166;4.760;2023-06-10T02:09:21;20.10;99.90
27384;DHT22;14851;51.166;4.760;2023-06-10T02:11:53;20.00;99.90
27384;DHT22;14851;51.166;4.760;2023-06-10T02:14:23;20.00;99.90
27384;DHT22;14851;51.166;4.760;2023-06-10T02:16:52;20.00;99.90
27384;DHT22;14851;51.166;4.760;2023-06-10T02:19:24;19.90;99.90
27384;DHT22;14851;51.166;4.760;2023-06-10T02:21:52;19.90;99.90
27384;DHT22;14851;51.166;4.760;2023-06-10T02:24:20;19.90;99.90
27384;DHT22;14851;51.166;4.760;2023-06-10T02:26:46;19.80;99.90
27384;DHT22;14851;51.166;4.760;2023-06-10T02:29:13;19.80;99.90
27384;DHT22;14851;51.166;4.760;2023-06-10T02:31:39;19.80;99.90
27384;DHT22;14851;51.166;4.760;2023-06-10T02:34:07;19.80;99.90
27384;DHT22;14851;51.166;4.760;2023-06-10T02:36:33;19.80;99.90
27384;DHT22;14851;51.166;4.760;2023-06-10T02:39:02;19.70;99.90
27384;DHT22;14851;51.166;4.760;2023-06-10T02:41:28;19.70;99.90
27384;DHT22;14851;51.166;4.760;2023-06-10T02:43:54;19.70;99.90
27384;DHT22;14851;51.166;4.760;2023-06-10T02:46:23;19.60;99.90
27384;DHT22;14851;51.166;4.760;2023-06-10T02:48:52;19.60;99.90
27384;DHT22;14851;51.166;4.760;2023-06-10T02:51:21;19.60;99.90
27384;DHT22;14851;51.166;4.760;2023-06-10T02:53:54;19.50;99.90
27384;DHT22;14851;51.166;4.760;2023-06-10T02:56:20;19.50;99.90
27384;DHT22;14851;51.166;4.760;2023-06-10T02:58:50;19.50;99.90
27384;DHT22;14851;51.166;4.760;2023-06-10T03:01:18;19.50;99.90
27384;DHT22;14851;51.166;4.760;2023-06-10T03:03:55;19.50;99.90
27384;DHT22;14851;51.166;4.760;2023-06-10T03:06:22;19.40;99.90
27384;DHT22;14851;51.166;4.760;2023-06-10T03:08:56;19.30;99.90
27384;DHT22;14851;51.166;4.760;2023-06-10T03:11:22;19.30;99.90
27384;DHT22;14851;51.166;4.760;2023-06-10T03:13:49;19.30;99.90
27384;DHT22;14851;51.166;4.760;2023-06-10T03:16:17;19.30;99.90
27384;DHT22;14851;51.166;4.760;2023-06-10T03:18:45;19.20;99.90
27384;DHT22;14851;51.166;4.760;2023-06-10T03:21:11;19.20;99.90
27384;DHT22;14851;51.166;4.760;2023-06-10T03:23:43;19.20;99.90
27384;DHT22;14851;51.166;4.760;2023-06-10T03:26:11;19.10;99.90
27384;DHT22;14851;51.166;4.760;2023-06-10T03:28:43;19.10;99.90
27384;DHT22;14851;51.166;4.760;2023-06-10T03:31:09;19.10;99.90
27384;DHT22;14851;51.166;4.760;2023-06-10T03:33:38;19.00;99.90
27384;DHT22;14851;51.166;4.760;2023-06-10T03:36:06;19.00;99.90
27384;DHT22;14851;51.166;4.760;2023-06-10T03:38:34;18.90;99.90
27384;DHT22;14851;51.166;4.760;2023-06-10T03:41:00;19.00;99.90
27384;DHT22;14851;51.166;4.760;2023-06-10T03:43:26;18.90;99.90
27384;DHT22;14851;51.166;4.760;2023-06-10T03:45:53;18.90;99.90
27384;DHT22;14851;51.166;4.760;2023-06-10T03:48:19;18.90;99.90
27384;DHT22;14851;51.166;4.760;2023-06-10T03:50:50;18.90;99.90
27384;DHT22;14851;51.166;4.760;2023-06-10T03:53:20;18.90;99.90
27384;DHT22;14851;51.166;4.760;2023-06-10T03:55:46;18.90;99.90
27384;DHT22;14851;51.166;4.760;2023-06-10T03:58:14;18.90;99.90
27384;DHT22;14851;51.166;4.760;2023-06-10T04:00:42;18.90;99.90
27384;DHT22;14851;51.166;4.760;2023-06-10T04:03:08;18.90;99.90
27384;DHT22;14851;51.166;4.760;2023-06-10T04:05:39;18.90;99.90
27384;DHT22;14851;51.166;4.760;2023-06-10T04:08:05;18.90;99.90
27384;DHT22;14851;51.166;4.760;2023-06-10T04:10:32;18.90;99.90
27384;DHT22;14851;51.166;4.760;2023-06-10T04:13:01;18.90;99.90
27384;DHT22;14851;51.166;4.760;2023-06-10T04:15:32;18.90;99.90
27384;DHT22;14851;51.166;4.760;2023-06-10T04:18:02;18.90;99.90
27384;DHT22;14851;51.166;4.760;2023-06-10T04:20:28;19.00;99.90
27384;DHT22;14851;51.166;4.760;2023-06-10T04:22:54;18.90;99.90
27384;DHT22;14851;51.166;4.760;2023-06-10T04:25:22;19.00;99.90
27384;DHT22;14851;51.166;4.760;2023-06-10T04:27:50;19.00;99.90
27384;DHT22;14851;51.166;4.760;2023-06-10T04:30:16;19.00;99.90
27384;DHT22;14851;51.166;4.760;2023-06-10T04:32:44;19.00;99.90
27384;DHT22;14851;51.166;4.760;2023-06-10T04:35:15;19.00;99.90
27384;DHT22;14851;51.166;4.760;2023-06-10T04:37:42;19.00;99.90
27384;DHT22;14851;51.166;4.760;2023-06-10T04:40:09;19.00;99.90
27384;DHT22;14851;51.166;4.760;2023-06-10T04:42:36;19.00;99.90
27384;DHT22;14851;51.166;4.760;2023-06-10T04:45:02;19.10;99.90
27384;DHT22;14851;51.166;4.760;2023-06-10T04:47:30;19.10;99.90
27384;DHT22;14851;51.166;4.760;2023-06-10T04:49:59;19.10;99.90
27384;DHT22;14851;51.166;4.760;2023-06-10T04:52:28;19.10;99.90
27384;DHT22;14851;51.166;4.760;2023-06-10T04:54:55;19.10;99.90
27384;DHT22;14851;51.166;4.760;2023-06-10T04:57:23;19.10;99.90
27384;DHT22;14851;51.166;4.760;2023-06-10T04:59:49;19.10;99.90
27384;DHT22;14851;51.166;4.760;2023-06-10T05:02:15;19.10;99.90
27384;DHT22;14851;51.166;4.760;2023-06-10T05:04:41;19.20;99.90
27384;DHT22;14851;51.166;4.760;2023-06-10T05:07:07;19.10;99.90
27384;DHT22;14851;51.166;4.760;2023-06-10T05:09:33;19.20;99.90
27384;DHT22;14851;51.166;4.760;2023-06-10T05:11:59;19.20;99.90
27384;DHT22;14851;51.166;4.760;2023-06-10T05:14:27;19.20;99.90
27384;DHT22;14851;51.166;4.760;2023-06-10T05:16:53;19.20;99.90
27384;DHT22;14851;51.166;4.760;2023-06-10T05:19:19;19.30;99.90
27384;DHT22;14851;51.166;4.760;2023-06-10T05:21:48;19.30;99.90
27384;DHT22;14851;51.166;4.760;2023-06-10T05:24:14;19.30;99.90
27384;DHT22;14851;51.166;4.760;2023-06-10T05:26:39;19.40;99.90
27384;DHT22;14851;51.166;4.760;2023-06-10T05:29:08;19.40;99.90
27384;DHT22;14851;51.166;4.760;2023-06-10T05:31:37;19.40;99.90
27384;DHT22;14851;51.166;4.760;2023-06-10T05:34:02;19.40;99.90
27384;DHT22;14851;51.166;4.760;2023-06-10T05:36:30;19.40;99.90
27384;DHT22;14851;51.166;4.760;2023-06-10T05:38:59;19.40;99.90
27384;DHT22;14851;51.166;4.760;2023-06-10T05:41:27;19.50;99.90
27384;DHT22;14851;51.166;4.760;2023-06-10T05:43:53;19.50;99.90
27384;DHT22;14851;51.166;4.760;2023-06-10T05:46:19;19.50;99.90
27384;DHT22;14851;51.166;4.760;2023-06-10T05:48:47;19.50;99.90
27384;DHT22;14851;51.166;4.760;2023-06-10T05:51:16;19.60;99.90
27384;DHT22;14851;51.166;4.760;2023-06-10T05:53:42;19.60;99.90
27384;DHT22;14851;51.166;4.760;2023-06-10T05:56:10;19.70;99.90
27384;DHT22;14851;51.166;4.760;2023-06-10T05:58:36;19.70;99.90
27384;DHT22;14851;51.166;4.760;2023-06-10T06:01:02;19.70;99.90
27384;DHT22;14851;51.166;4.760;2023-06-10T06:03:28;19.70;99.90
27384;DHT22;14851;51.166;4.760;2023-06-10T06:05:54;19.70;99.90
27384;DHT22;14851;51.166;4.760;2023-06-10T06:08:22;19.70;99.90
27384;DHT22;14851;51.166;4.760;2023-06-10T06:10:48;19.80;99.90
27384;DHT22;14851;51.166;4.760;2023-06-10T06:13:14;19.80;99.90
27384;DHT22;14851;51.166;4.760;2023-06-10T06:15:40;19.80;99.90
27384;DHT22;14851;51.166;4.760;2023-06-10T06:18:11;19.80;99.90
27384;DHT22;14851;51.166;4.760;2023-06-10T06:20:37;19.90;99.90
27384;DHT22;14851;51.166;4.760;2023-06-10T06:23:08;19.90;99.90
27384;DHT22;14851;51.166;4.760;2023-06-10T06:25:39;19.90;99.90
27384;DHT22;14851;51.166;4.760;2023-06-10T06:28:09;19.90;99.90
27384;DHT22;14851;51.166;4.760;2023-06-10T06:30:36;20.00;99.90
27384;DHT22;14851;51.166;4.760;2023-06-10T06:33:04;20.00;99.90
27384;DHT22;14851;51.166;4.760;2023-06-10T06:35:33;20.00;99.90
27384;DHT22;14851;51.166;4.760;2023-06-10T06:38:00;20.00;99.90
27384;DHT22;14851;51.166;4.760;2023-06-10T06:40:28;20.10;99.90
27384;DHT22;14851;51.166;4.760;2023-06-10T06:42:54;20.10;99.90
27384;DHT22;14851;51.166;4.760;2023-06-10T06:45:35;20.10;99.90
27384;DHT22;14851;51.166;4.760;2023-06-10T06:48:05;20.20;99.90
27384;DHT22;14851;51.166;4.760;2023-06-10T06:50:31;20.20;99.90
27384;DHT22;14851;51.166;4.760;2023-06-10T06:52:57;20.20;99.90
27384;DHT22;14851;51.166;4.760;2023-06-10T06:55:27;20.20;99.90
27384;DHT22;14851;51.166;4.760;2023-06-10T06:57:53;20.30;99.90
27384;DHT22;14851;51.166;4.760;2023-06-10T07:00:20;20.30;99.90
27384;DHT22;14851;51.166;4.760;2023-06-10T07:02:46;20.30;99.90
27384;DHT22;14851;51.166;4.760;2023-06-10T07:05:11;20.40;99.90
27384;DHT22;14851;51.166;4.760;2023-06-10T07:07:37;20.40;99.90
27384;DHT22;14851;51.166;4.760;2023-06-10T07:10:03;20.40;99.90
27384;DHT22;14851;51.166;4.760;2023-06-10T07:12:32;20.50;99.90
27384;DHT22;14851;51.166;4.760;2023-06-10T07:15:00;20.50;99.90
27384;DHT22;14851;51.166;4.760;2023-06-10T07:17:26;20.50;99.90
27384;DHT22;14851;51.166;4.760;2023-06-10T07:19:52;20.60;99.90
27384;DHT22;14851;51.166;4.760;2023-06-10T07:22:18;20.70;99.90
27384;DHT22;14851;51.166;4.760;2023-06-10T07:24:45;20.70;99.90
27384;DHT22;14851;51.166;4.760;2023-06-10T07:27:13;20.70;99.90
27384;DHT22;14851;51.166;4.760;2023-06-10T07:29:39;20.80;99.90
27384;DHT22;14851;51.166;4.760;2023-06-10T07:32:05;20.80;99.90
27384;DHT22;14851;51.166;4.760;2023-06-10T07:34:31;20.90;99.90
27384;DHT22;14851;51.166;4.760;2023-06-10T07:37:00;20.90;99.90
27384;DHT22;14851;51.166;4.760;2023-06-10T07:39:28;20.90;99.90
27384;DHT22;14851;51.166;4.760;2023-06-10T07:41:57;21.00;99.90
27384;DHT22;14851;51.166;4.760;2023-06-10T07:44:23;21.00;99.90
27384;DHT22;14851;51.166;4.760;2023-06-10T07:46:49;21.10;99.90
27384;DHT22;14851;51.166;4.760;2023-06-10T07:49:15;21.10;99.90
27384;DHT22;14851;51.166;4.760;2023-06-10T07:51:55;21.10;99.90
27384;DHT22;14851;51.166;4.760;2023-06-10T07:54:26;21.20;99.90
27384;DHT22;14851;51.166;4.760;2023-06-10T07:56:53;21.20;99.90
27384;DHT22;14851;51.166;4.760;2023-06-10T07:59:19;21.30;99.90
27384;DHT22;14851;51.166;4.760;2023-06-10T08:01:45;21.30;99.90
27384;DHT22;14851;51.166;4.760;2023-06-10T08:04:13;21.40;99.90
27384;DHT22;14851;51.166;4.760;2023-06-10T08:06:39;21.40;99.90
27384;DHT22;14851;51.166;4.760;2023-06-10T08:09:05;21.40;99.90
27384;DHT22;14851;51.166;4.760;2023-06-10T08:11:31;21.50;99.90
27384;DHT22;14851;51.166;4.760;2023-06-10T08:13:59;21.50;99.90
27384;DHT22;14851;51.166;4.760;2023-06-10T08:16:25;21.60;99.90
27384;DHT22;14851;51.166;4.760;2023-06-10T08:18:51;21.60;99.90
27384;DHT22;14851;51.166;4.760;2023-06-10T08:21:19;21.70;99.90
27384;DHT22;14851;51.166;4.760;2023-06-10T08:23:45;21.70;99.90
27384;DHT22;14851;51.166;4.760;2023-06-10T08:26:12;21.80;99.90
27384;DHT22;14851;51.166;4.760;2023-06-10T08:28:38;21.80;99.90
27384;DHT22;14851;51.166;4.760;2023-06-10T08:31:04;21.90;99.90
27384;DHT22;14851;51.166;4.760;2023-06-10T08:33:33;21.90;99.90
27384;DHT22;14851;51.166;4.760;2023-06-10T08:35:58;22.00;99.90
27384;DHT22;14851;51.166;4.760;2023-06-10T08:38:24;22.00;99.90
27384;DHT22;14851;51.166;4.760;2023-06-10T08:40:56;22.10;99.90
27384;DHT22;14851;51.166;4.760;2023-06-10T08:43:33;22.20;99.90
27384;DHT22;14851;51.166;4.760;2023-06-10T08:46:01;22.20;99.90
27384;DHT22;14851;51.166;4.760;2023-06-10T08:48:34;22.20;99.90
27384;DHT22;14851;51.166;4.760;2023-06-10T08:51:04;22.30;99.90
27384;DHT22;14851;51.166;4.760;2023-06-10T08:53:34;22.30;99.90
27384;DHT22;14851;51.166;4.760;2023-06-10T08:56:03;22.40;99.90
27384;DHT22;14851;51.166;4.760;2023-06-10T08:58:32;22.40;99.90
27384;DHT22;14851;51.166;4.760;2023-06-10T09:00:59;22.50;99.90
27384;DHT22;14851;51.166;4.760;2023-06-10T09:03:25;22.50;99.90
27384;DHT22;14851;51.166;4.760;2023-06-10T09:05:52;22.60;99.90
27384;DHT22;14851;51.166;4.760;2023-06-10T09:08:21;22.60;99.90
27384;DHT22;14851;51.166;4.760;2023-06-10T09:10:52;22.70;99.90
27384;DHT22;14851;51.166;4.760;2023-06-10T09:13:18;22.80;99.90
27384;DHT22;14851;51.166;4.760;2023-06-10T09:15:46;22.80;99.90
27384;DHT22;14851;51.166;4.760;2023-06-10T09:18:15;22.80;99.90
27384;DHT22;14851;51.166;4.760;2023-06-10T09:20:43;22.90;99.90
27384;DHT22;14851;51.166;4.760;2023-06-10T09:23:15;22.90;99.90
27384;DHT22;14851;51.166;4.760;2023-06-10T09:25:42;23.00;99.90
27384;DHT22;14851;51.166;4.760;2023-06-10T09:28:14;23.10;99.90
27384;DHT22;14851;51.166;4.760;2023-06-10T09:30:43;23.20;99.90
27384;DHT22;14851;51.166;4.760;2023-06-10T09:33:14;23.20;99.90
27384;DHT22;14851;51.166;4.760;2023-06-10T09:35:49;23.30;99.90
27384;DHT22;14851;51.166;4.760;2023-06-10T09:38:30;23.30;99.90
27384;DHT22;14851;51.166;4.760;2023-06-10T09:40:56;23.30;99.90
27384;DHT22;14851;51.166;4.760;2023-06-10T09:43:39;23.40;99.90
27384;DHT22;14851;51.166;4.760;2023-06-10T09:46:06;23.40;99.90
27384;DHT22;14851;51.166;4.760;2023-06-10T09:48:41;23.50;99.90
27384;DHT22;14851;51.166;4.760;2023-06-10T09:51:12;23.60;99.90
27384;DHT22;14851;51.166;4.760;2023-06-10T09:53:38;23.60;99.90
27384;DHT22;14851;51.166;4.760;2023-06-10T09:56:05;23.70;99.90
27384;DHT22;14851;51.166;4.760;2023-06-10T09:58:38;23.70;99.90
27384;DHT22;14851;51.166;4.760;2023-06-10T10:01:10;23.80;99.90
27384;DHT22;14851;51.166;4.760;2023-06-10T10:03:46;23.80;99.90
27384;DHT22;14851;51.166;4.760;2023-06-10T10:06:14;23.90;99.90
27384;DHT22;14851;51.166;4.760;2023-06-10T10:08:40;23.90;99.90
27384;DHT22;14851;51.166;4.760;2023-06-10T10:11:06;24.00;99.90
27384;DHT22;14851;51.166;4.760;2023-06-10T10:13:34;24.00;99.90
27384;DHT22;14851;51.166;4.760;2023-06-10T10:16:11;24.10;99.90
27384;DHT22;14851;51.166;4.760;2023-06-10T10:18:41;24.20;99.90
27384;DHT22;14851;51.166;4.760;2023-06-10T10:21:13;24.20;99.90
27384;DHT22;14851;51.166;4.760;2023-06-10T10:23:53;24.20;99.90
27384;DHT22;14851;51.166;4.760;2023-06-10T10:26:21;24.30;99.90
27384;DHT22;14851;51.166;4.760;2023-06-10T10:29:16;24.30;99.90
27384;DHT22;14851;51.166;4.760;2023-06-10T10:31:45;24.40;99.90
27384;DHT22;14851;51.166;4.760;2023-06-10T10:34:15;24.40;99.90
27384;DHT22;14851;51.166;4.760;2023-06-10T10:36:45;24.50;99.90
27384;DHT22;14851;51.166;4.760;2023-06-10T10:39:14;24.50;99.90
27384;DHT22;14851;51.166;4.760;2023-06-10T10:41:44;24.60;99.90
27384;DHT22;14851;51.166;4.760;2023-06-10T10:44:13;24.60;99.90
27384;DHT22;14851;51.166;4.760;2023-06-10T10:46:49;24.70;99.90
27384;DHT22;14851;51.166;4.760;2023-06-10T10:49:17;24.80;99.90
27384;DHT22;14851;51.166;4.760;2023-06-10T10:52:01;24.80;99.90
27384;DHT22;14851;51.166;4.760;2023-06-10T10:54:33;24.80;99.90
27384;DHT22;14851;51.166;4.760;2023-06-10T10:57:16;24.80;99.90
27384;DHT22;14851;51.166;4.760;2023-06-10T11:02:40;24.90;99.90
27384;DHT22;14851;51.166;4.760;2023-06-10T11:05:07;25.00;99.90
27384;DHT22;14851;51.166;4.760;2023-06-10T11:07:35;25.10;99.90
27384;DHT22;14851;51.166;4.760;2023-06-10T11:15:07;25.20;99.90
27384;DHT22;14851;51.166;4.760;2023-06-10T11:17:33;25.30;99.90
27384;DHT22;14851;51.166;4.760;2023-06-10T11:19:59;25.30;99.90
27384;DHT22;14851;51.166;4.760;2023-06-10T11:22:28;25.30;99.90
27384;DHT22;14851;51.166;4.760;2023-06-10T11:24:54;25.40;99.90
27384;DHT22;14851;51.166;4.760;2023-06-10T11:27:21;25.40;99.90
27384;DHT22;14851;51.166;4.760;2023-06-10T11:32:34;25.50;99.90
27384;DHT22;14851;51.166;4.760;2023-06-10T11:35:03;25.60;99.90
27384;DHT22;14851;51.166;4.760;2023-06-10T11:37:30;25.70;99.50
27384;DHT22;14851;51.166;4.760;2023-06-10T11:39:56;25.70;99.90
27384;DHT22;14851;51.166;4.760;2023-06-10T11:42:22;25.70;99.90
27384;DHT22;14851;51.166;4.760;2023-06-10T11:44:58;25.70;99.30
27384;DHT22;14851;51.166;4.760;2023-06-10T11:47:30;25.80;99.20
27384;DHT22;14851;51.166;4.760;2023-06-10T11:50:12;25.90;99.10
27384;DHT22;14851;51.166;4.760;2023-06-10T11:52:52;26.00;97.70
27384;DHT22;14851;51.166;4.760;2023-06-10T11:55:21;26.00;99.20
27384;DHT22;14851;51.166;4.760;2023-06-10T11:57:49;26.00;96.70
27384;DHT22;14851;51.166;4.760;2023-06-10T12:00:23;26.00;97.00
27384;DHT22;14851;51.166;4.760;2023-06-10T12:02:59;26.10;97.00
27384;DHT22;14851;51.166;4.760;2023-06-10T12:05:25;26.20;97.00
27384;DHT22;14851;51.166;4.760;2023-06-10T12:08:08;26.20;96.60
27384;DHT22;14851;51.166;4.760;2023-06-10T12:10:41;26.20;95.20
27384;DHT22;14851;51.166;4.760;2023-06-10T12:13:10;26.30;95.90
27384;DHT22;14851;51.166;4.760;2023-06-10T12:15:37;26.30;97.10
27384;DHT22;14851;51.166;4.760;2023-06-10T12:18:03;26.30;95.80
27384;DHT22;14851;51.166;4.760;2023-06-10T12:20:31;26.40;95.40
27384;DHT22;14851;51.166;4.760;2023-06-10T12:22:59;26.40;95.30
27384;DHT22;14851;51.166;4.760;2023-06-10T12:25:28;26.40;95.20
27384;DHT22;14851;51.166;4.760;2023-06-10T12:27:57;26.40;94.00
27384;DHT22;14851;51.166;4.760;2023-06-10T12:30:26;26.50;92.80
27384;DHT22;14851;51.166;4.760;2023-06-10T12:32:55;26.50;94.20
27384;DHT22;14851;51.166;4.760;2023-06-10T12:35:24;26.50;95.50
27384;DHT22;14851;51.166;4.760;2023-06-10T12:40:39;26.60;95.10
27384;DHT22;14851;51.166;4.760;2023-06-10T12:43:20;26.70;95.30
27384;DHT22;14851;51.166;4.760;2023-06-10T12:45:49;26.70;95.40
27384;DHT22;14851;51.166;4.760;2023-06-10T12:50:58;26.80;95.30
27384;DHT22;14851;51.166;4.760;2023-06-10T12:53:25;26.80;93.30
27384;DHT22;14851;51.166;4.760;2023-06-10T12:55:52;26.80;94.90
27384;DHT22;14851;51.166;4.760;2023-06-10T12:58:21;26.80;94.50
27384;DHT22;14851;51.166;4.760;2023-06-10T13:00:48;26.90;93.60
27384;DHT22;14851;51.166;4.760;2023-06-10T13:03:17;26.90;94.90
27384;DHT22;14851;51.166;4.760;2023-06-10T13:05:45;27.00;92.70
27384;DHT22;14851;51.166;4.760;2023-06-10T13:08:12;27.10;92.90
27384;DHT22;14851;51.166;4.760;2023-06-10T13:10:38;27.20;92.70
27384;DHT22;14851;51.166;4.760;2023-06-10T13:13:06;27.20;94.30
27384;DHT22;14851;51.166;4.760;2023-06-10T13:15:42;27.20;93.90
27384;DHT22;14851;51.166;4.760;2023-06-10T13:18:12;27.20;94.00
27384;DHT22;14851;51.166;4.760;2023-06-10T13:20:38;27.20;92.60
27384;DHT22;14851;51.166;4.760;2023-06-10T13:23:06;27.20;92.20
27384;DHT22;14851;51.166;4.760;2023-06-10T13:25:37;27.20;93.20
27384;DHT22;14851;51.166;4.760;2023-06-10T13:28:13;27.20;92.80
27384;DHT22;14851;51.166;4.760;2023-06-10T13:30:41;27.30;93.60
27384;DHT22;14851;51.166;4.760;2023-06-10T13:33:07;27.30;92.40
27384;DHT22;14851;51.166;4.760;2023-06-10T13:35:33;27.40;93.10
27384;DHT22;14851;51.166;4.760;2023-06-10T13:37:59;27.30;91.90
27384;DHT22;14851;51.166;4.760;2023-06-10T13:40:25;27.40;91.40
27384;DHT22;14851;51.166;4.760;2023-06-10T13:42:51;27.60;92.00
27384;DHT22;14851;51.166;4.760;2023-06-10T13:45:18;27.60;93.00
27384;DHT22;14851;51.166;4.760;2023-06-10T13:47:44;27.60;93.80
27384;DHT22;14851;51.166;4.760;2023-06-10T13:50:10;27.60;92.30
27384;DHT22;14851;51.166;4.760;2023-06-10T13:52:39;27.70;91.90
27384;DHT22;14851;51.166;4.760;2023-06-10T13:55:05;27.70;92.40
27384;DHT22;14851;51.166;4.760;2023-06-10T13:57:31;27.70;92.60
27384;DHT22;14851;51.166;4.760;2023-06-10T13:59:59;27.80;92.60
27384;DHT22;14851;51.166;4.760;2023-06-10T14:02:28;27.80;92.80
27384;DHT22;14851;51.166;4.760;2023-06-10T14:04:56;27.80;93.40
27384;DHT22;14851;51.166;4.760;2023-06-10T14:07:22;27.80;90.90
27384;DHT22;14851;51.166;4.760;2023-06-10T14:09:47;27.80;91.80
27384;DHT22;14851;51.166;4.760;2023-06-10T14:12:19;27.80;92.50
27384;DHT22;14851;51.166;4.760;2023-06-10T14:14:45;27.90;91.30
27384;DHT22;14851;51.166;4.760;2023-06-10T14:17:11;27.90;91.70
27384;DHT22;14851;51.166;4.760;2023-06-10T14:19:39;28.00;91.70
27384;DHT22;14851;51.166;4.760;2023-06-10T14:22:06;28.10;90.90
27384;DHT22;14851;51.166;4.760;2023-06-10T14:24:33;28.10;91.60
27384;DHT22;14851;51.166;4.760;2023-06-10T14:27:01;28.10;91.80
27384;DHT22;14851;51.166;4.760;2023-06-10T14:29:28;28.20;91.20
27384;DHT22;14851;51.166;4.760;2023-06-10T14:31:55;28.20;91.10
27384;DHT22;14851;51.166;4.760;2023-06-10T14:34:21;28.30;91.50
27384;DHT22;14851;51.166;4.760;2023-06-10T14:36:49;28.30;91.60
27384;DHT22;14851;51.166;4.760;2023-06-10T14:39:20;28.30;91.80
27384;DHT22;14851;51.166;4.760;2023-06-10T14:41:45;28.40;91.60
27384;DHT22;14851;51.166;4.760;2023-06-10T14:44:11;28.60;88.60
27384;DHT22;14851;51.166;4.760;2023-06-10T14:46:37;28.60;90.80
27384;DHT22;14851;51.166;4.760;2023-06-10T14:49:05;28.70;90.30
27384;DHT22;14851;51.166;4.760;2023-06-10T14:51:33;28.80;90.10
27384;DHT22;14851;51.166;4.760;2023-06-10T14:54:00;28.90;87.40
27384;DHT22;14851;51.166;4.760;2023-06-10T14:56:28;29.00;89.10
27384;DHT22;14851;51.166;4.760;2023-06-10T14:58:55;29.10;87.50
27384;DHT22;14851;51.166;4.760;2023-06-10T15:01:20;29.20;87.60
27384;DHT22;14851;51.166;4.760;2023-06-10T15:03:46;29.20;88.70
27384;DHT22;14851;51.166;4.760;2023-06-10T15:06:12;29.30;86.90
27384;DHT22;14851;51.166;4.760;2023-06-10T15:08:42;29.50;83.80
27384;DHT22;14851;51.166;4.760;2023-06-10T15:11:08;29.50;85.20
27384;DHT22;14851;51.166;4.760;2023-06-10T15:13:34;29.60;85.20
27384;DHT22;14851;51.166;4.760;2023-06-10T15:16:00;29.60;84.00
27384;DHT22;14851;51.166;4.760;2023-06-10T15:18:26;29.70;85.70
27384;DHT22;14851;51.166;4.760;2023-06-10T15:20:52;29.70;83.70
27384;DHT22;14851;51.166;4.760;2023-06-10T15:23:18;29.70;86.00
27384;DHT22;14851;51.166;4.760;2023-06-10T15:25:47;29.70;83.40
27384;DHT22;14851;51.166;4.760;2023-06-10T15:28:13;29.80;82.50
27384;DHT22;14851;51.166;4.760;2023-06-10T15:30:39;29.70;82.10
27384;DHT22;14851;51.166;4.760;2023-06-10T15:33:05;29.70;83.30
27384;DHT22;14851;51.166;4.760;2023-06-10T15:35:32;29.70;83.90
27384;DHT22;14851;51.166;4.760;2023-06-10T15:37:58;29.70;82.80
27384;DHT22;14851;51.166;4.760;2023-06-10T15:40:24;29.70;79.80
27384;DHT22;14851;51.166;4.760;2023-06-10T15:42:52;29.70;84.20
27384;DHT22;14851;51.166;4.760;2023-06-10T15:45:18;29.60;81.90
27384;DHT22;14851;51.166;4.760;2023-06-10T15:47:44;29.60;82.10
27384;DHT22;14851;51.166;4.760;2023-06-10T15:50:10;29.60;82.00
27384;DHT22;14851;51.166;4.760;2023-06-10T15:52:36;29.60;81.40
27384;DHT22;14851;51.166;4.760;2023-06-10T15:55:02;29.60;78.40